Goshen, New Jersey
Current Conditions -  °F | °C
As of 5:55 PM on Tuesday 21 Oct 2014 (Local Time) from KWWD Reporting Station
Clear Clear  
Wind Chill: 63°   Ceiling: Unl
Heat Index: 63°   Visibility: 10mi
Dew Point: 48°   Wind: 0mph
Humidity: 59%   Direction: NA
Pressure: 29.83"   Gusts: NA
Location:  39.14°N, 74.85°W
Report Text: KWWD 212155Z AUTO 00000KT 10SM CLR 17/09 A2983 RMK AO1
Loading
Personal Weather Stations






























Interactive Weather Map
Tropical Storm Tracking
New forecast layout! Learn more

10-Day Weather Forecast

Advertisements
Track Severe Weather on mobile